sensor_id;sensor_type;location;lat;lon;timestamp;P1;durP1;ratioP1;P2;durP2;ratioP2
12469;SDS011;36499;46.484;13.832;2022-07-06T00:02:06;3.20;;;1.90;;
12469;SDS011;36499;46.484;13.832;2022-07-06T00:04:33;3.13;;;1.97;;
12469;SDS011;36499;46.484;13.832;2022-07-06T00:07:00;2.53;;;2.00;;
12469;SDS011;36499;46.484;13.832;2022-07-06T00:09:27;2.70;;;1.80;;
12469;SDS011;36499;46.484;13.832;2022-07-06T00:11:54;5.53;;;2.20;;
12469;SDS011;36499;46.484;13.832;2022-07-06T00:14:21;4.37;;;1.93;;
12469;SDS011;36499;46.484;13.832;2022-07-06T00:16:50;2.70;;;1.80;;
12469;SDS011;36499;46.484;13.832;2022-07-06T00:19:17;3.53;;;1.70;;
12469;SDS011;36499;46.484;13.832;2022-07-06T00:21:44;1.87;;;1.77;;
12469;SDS011;36499;46.484;13.832;2022-07-06T00:24:11;3.23;;;1.77;;
12469;SDS011;36499;46.484;13.832;2022-07-06T00:26:39;2.00;;;1.80;;
12469;SDS011;36499;46.484;13.832;2022-07-06T00:29:06;3.70;;;2.10;;
12469;SDS011;36499;46.484;13.832;2022-07-06T00:31:33;3.13;;;1.97;;
12469;SDS011;36499;46.484;13.832;2022-07-06T00:34:01;1.83;;;1.73;;
12469;SDS011;36499;46.484;13.832;2022-07-06T00:36:29;1.80;;;1.70;;
12469;SDS011;36499;46.484;13.832;2022-07-06T00:38:56;2.70;;;1.90;;
12469;SDS011;36499;46.484;13.832;2022-07-06T00:41:23;3.40;;;2.10;;
12469;SDS011;36499;46.484;13.832;2022-07-06T00:43:51;2.30;;;2.10;;
12469;SDS011;36499;46.484;13.832;2022-07-06T00:46:21;1.93;;;1.83;;
12469;SDS011;36499;46.484;13.832;2022-07-06T00:48:53;3.67;;;1.90;;
12469;SDS011;36499;46.484;13.832;2022-07-06T00:51:24;4.83;;;2.13;;
12469;SDS011;36499;46.484;13.832;2022-07-06T00:53:58;4.53;;;1.90;;
12469;SDS011;36499;46.484;13.832;2022-07-06T00:56:28;3.13;;;1.93;;
12469;SDS011;36499;46.484;13.832;2022-07-06T00:58:57;2.17;;;1.97;;
12469;SDS011;36499;46.484;13.832;2022-07-06T01:01:26;2.13;;;1.93;;
12469;SDS011;36499;46.484;13.832;2022-07-06T01:03:53;2.43;;;2.10;;
12469;SDS011;36499;46.484;13.832;2022-07-06T01:06:22;2.20;;;2.00;;
12469;SDS011;36499;46.484;13.832;2022-07-06T01:08:50;2.53;;;2.00;;
12469;SDS011;36499;46.484;13.832;2022-07-06T01:11:17;2.70;;;1.87;;
12469;SDS011;36499;46.484;13.832;2022-07-06T01:13:45;2.63;;;2.40;;
12469;SDS011;36499;46.484;13.832;2022-07-06T01:16:16;3.50;;;2.10;;
12469;SDS011;36499;46.484;13.832;2022-07-06T01:18:43;3.93;;;2.07;;
12469;SDS011;36499;46.484;13.832;2022-07-06T01:21:12;2.13;;;2.00;;
12469;SDS011;36499;46.484;13.832;2022-07-06T01:23:41;2.37;;;2.00;;
12469;SDS011;36499;46.484;13.832;2022-07-06T01:26:10;2.20;;;1.90;;
12469;SDS011;36499;46.484;13.832;2022-07-06T01:28:40;2.30;;;1.93;;
12469;SDS011;36499;46.484;13.832;2022-07-06T01:31:13;4.23;;;2.20;;
12469;SDS011;36499;46.484;13.832;2022-07-06T01:33:42;3.80;;;2.33;;
12469;SDS011;36499;46.484;13.832;2022-07-06T01:36:11;2.50;;;2.30;;
12469;SDS011;36499;46.484;13.832;2022-07-06T01:38:46;1.93;;;1.83;;
12469;SDS011;36499;46.484;13.832;2022-07-06T01:41:14;3.70;;;2.03;;
12469;SDS011;36499;46.484;13.832;2022-07-06T01:43:42;1.90;;;1.80;;
12469;SDS011;36499;46.484;13.832;2022-07-06T01:46:10;2.87;;;2.13;;
12469;SDS011;36499;46.484;13.832;2022-07-06T01:48:37;4.43;;;2.20;;
12469;SDS011;36499;46.484;13.832;2022-07-06T01:51:05;3.50;;;2.10;;
12469;SDS011;36499;46.484;13.832;2022-07-06T01:53:34;2.30;;;2.10;;
12469;SDS011;36499;46.484;13.832;2022-07-06T01:56:02;3.90;;;2.00;;
12469;SDS011;36499;46.484;13.832;2022-07-06T01:58:30;2.47;;;2.07;;
12469;SDS011;36499;46.484;13.832;2022-07-06T02:00:57;1.90;;;1.77;;
12469;SDS011;36499;46.484;13.832;2022-07-06T02:03:24;4.00;;;2.20;;
12469;SDS011;36499;46.484;13.832;2022-07-06T02:05:51;6.10;;;2.00;;
12469;SDS011;36499;46.484;13.832;2022-07-06T02:08:18;3.13;;;2.00;;
12469;SDS011;36499;46.484;13.832;2022-07-06T02:10:47;4.70;;;2.20;;
12469;SDS011;36499;46.484;13.832;2022-07-06T02:13:14;3.17;;;2.27;;
12469;SDS011;36499;46.484;13.832;2022-07-06T02:15:41;3.40;;;2.13;;
12469;SDS011;36499;46.484;13.832;2022-07-06T02:18:08;2.00;;;1.87;;
12469;SDS011;36499;46.484;13.832;2022-07-06T02:20:36;2.50;;;2.30;;
12469;SDS011;36499;46.484;13.832;2022-07-06T02:23:03;4.73;;;2.07;;
12469;SDS011;36499;46.484;13.832;2022-07-06T02:25:30;3.43;;;2.23;;
12469;SDS011;36499;46.484;13.832;2022-07-06T02:27:59;2.17;;;1.97;;
12469;SDS011;36499;46.484;13.832;2022-07-06T02:30:26;2.20;;;2.00;;
12469;SDS011;36499;46.484;13.832;2022-07-06T02:32:53;2.40;;;2.20;;
12469;SDS011;36499;46.484;13.832;2022-07-06T02:35:20;3.53;;;2.00;;
12469;SDS011;36499;46.484;13.832;2022-07-06T02:37:47;2.40;;;2.20;;
12469;SDS011;36499;46.484;13.832;2022-07-06T02:40:15;4.67;;;2.37;;
12469;SDS011;36499;46.484;13.832;2022-07-06T02:42:42;3.10;;;2.10;;
12469;SDS011;36499;46.484;13.832;2022-07-06T02:45:11;2.20;;;2.00;;
12469;SDS011;36499;46.484;13.832;2022-07-06T02:47:38;3.83;;;2.00;;
12469;SDS011;36499;46.484;13.832;2022-07-06T02:50:05;3.03;;;2.00;;
12469;SDS011;36499;46.484;13.832;2022-07-06T02:52:33;3.87;;;2.00;;
12469;SDS011;36499;46.484;13.832;2022-07-06T02:55:00;4.57;;;2.20;;
12469;SDS011;36499;46.484;13.832;2022-07-06T02:57:28;4.70;;;2.07;;
12469;SDS011;36499;46.484;13.832;2022-07-06T02:59:56;2.30;;;2.10;;
12469;SDS011;36499;46.484;13.832;2022-07-06T03:02:25;1.80;;;1.70;;
12469;SDS011;36499;46.484;13.832;2022-07-06T03:04:52;3.00;;;2.40;;
12469;SDS011;36499;46.484;13.832;2022-07-06T03:07:19;2.77;;;2.03;;
12469;SDS011;36499;46.484;13.832;2022-07-06T03:09:47;3.43;;;2.50;;
12469;SDS011;36499;46.484;13.832;2022-07-06T03:12:15;2.43;;;2.23;;
12469;SDS011;36499;46.484;13.832;2022-07-06T03:14:42;3.83;;;2.40;;
12469;SDS011;36499;46.484;13.832;2022-07-06T03:17:09;2.30;;;2.10;;
12469;SDS011;36499;46.484;13.832;2022-07-06T03:19:38;3.37;;;2.40;;
12469;SDS011;36499;46.484;13.832;2022-07-06T03:22:05;2.50;;;2.30;;
12469;SDS011;36499;46.484;13.832;2022-07-06T03:24:32;2.60;;;2.30;;
12469;SDS011;36499;46.484;13.832;2022-07-06T03:26:59;2.33;;;2.13;;
12469;SDS011;36499;46.484;13.832;2022-07-06T03:29:27;2.70;;;2.30;;
12469;SDS011;36499;46.484;13.832;2022-07-06T03:31:54;2.87;;;2.10;;
12469;SDS011;36499;46.484;13.832;2022-07-06T03:34:21;6.50;;;2.67;;
12469;SDS011;36499;46.484;13.832;2022-07-06T03:36:49;3.57;;;2.37;;
12469;SDS011;36499;46.484;13.832;2022-07-06T03:39:16;3.27;;;2.30;;
12469;SDS011;36499;46.484;13.832;2022-07-06T03:41:43;5.13;;;2.40;;
12469;SDS011;36499;46.484;13.832;2022-07-06T03:44:11;2.50;;;2.20;;
12469;SDS011;36499;46.484;13.832;2022-07-06T03:46:38;4.63;;;2.40;;
12469;SDS011;36499;46.484;13.832;2022-07-06T03:49:05;2.93;;;2.63;;
12469;SDS011;36499;46.484;13.832;2022-07-06T03:51:32;4.27;;;2.30;;
12469;SDS011;36499;46.484;13.832;2022-07-06T03:54:00;4.53;;;2.50;;
12469;SDS011;36499;46.484;13.832;2022-07-06T03:56:28;2.90;;;2.27;;
12469;SDS011;36499;46.484;13.832;2022-07-06T03:58:55;7.00;;;2.27;;
12469;SDS011;36499;46.484;13.832;2022-07-06T04:01:24;2.50;;;2.30;;
12469;SDS011;36499;46.484;13.832;2022-07-06T04:03:51;4.67;;;2.00;;
12469;SDS011;36499;46.484;13.832;2022-07-06T04:06:19;3.87;;;2.40;;
12469;SDS011;36499;46.484;13.832;2022-07-06T04:08:46;2.80;;;2.10;;
12469;SDS011;36499;46.484;13.832;2022-07-06T04:11:15;4.03;;;2.40;;
12469;SDS011;36499;46.484;13.832;2022-07-06T04:13:42;2.20;;;2.00;;
12469;SDS011;36499;46.484;13.832;2022-07-06T04:16:09;5.70;;;2.50;;
12469;SDS011;36499;46.484;13.832;2022-07-06T04:18:36;3.50;;;2.27;;
12469;SDS011;36499;46.484;13.832;2022-07-06T04:21:03;4.67;;;2.20;;
12469;SDS011;36499;46.484;13.832;2022-07-06T04:23:30;3.60;;;2.20;;
12469;SDS011;36499;46.484;13.832;2022-07-06T04:25:58;2.30;;;2.10;;
12469;SDS011;36499;46.484;13.832;2022-07-06T04:28:26;2.27;;;2.07;;
12469;SDS011;36499;46.484;13.832;2022-07-06T04:30:53;4.70;;;1.90;;
12469;SDS011;36499;46.484;13.832;2022-07-06T04:33:21;4.03;;;2.17;;
12469;SDS011;36499;46.484;13.832;2022-07-06T04:35:48;2.30;;;2.10;;
12469;SDS011;36499;46.484;13.832;2022-07-06T04:38:15;3.00;;;2.50;;
12469;SDS011;36499;46.484;13.832;2022-07-06T04:40:43;5.00;;;2.17;;
12469;SDS011;36499;46.484;13.832;2022-07-06T04:43:11;4.87;;;2.20;;
12469;SDS011;36499;46.484;13.832;2022-07-06T04:45:40;2.50;;;2.20;;
12469;SDS011;36499;46.484;13.832;2022-07-06T04:48:07;2.20;;;2.00;;
12469;SDS011;36499;46.484;13.832;2022-07-06T04:50:34;4.43;;;2.33;;
12469;SDS011;36499;46.484;13.832;2022-07-06T04:53:02;3.60;;;2.30;;
12469;SDS011;36499;46.484;13.832;2022-07-06T04:55:29;2.40;;;2.20;;
12469;SDS011;36499;46.484;13.832;2022-07-06T04:57:56;3.47;;;2.30;;
12469;SDS011;36499;46.484;13.832;2022-07-06T05:00:23;2.30;;;2.10;;
12469;SDS011;36499;46.484;13.832;2022-07-06T05:02:52;5.70;;;2.20;;
12469;SDS011;36499;46.484;13.832;2022-07-06T05:05:22;3.17;;;2.00;;
12469;SDS011;36499;46.484;13.832;2022-07-06T05:07:49;2.97;;;2.00;;
12469;SDS011;36499;46.484;13.832;2022-07-06T05:10:17;6.77;;;2.13;;
12469;SDS011;36499;46.484;13.832;2022-07-06T05:12:44;4.70;;;2.23;;
12469;SDS011;36499;46.484;13.832;2022-07-06T05:15:11;2.77;;;2.03;;
12469;SDS011;36499;46.484;13.832;2022-07-06T05:17:38;3.73;;;2.37;;
12469;SDS011;36499;46.484;13.832;2022-07-06T05:20:07;3.40;;;2.00;;
12469;SDS011;36499;46.484;13.832;2022-07-06T05:22:34;3.00;;;2.13;;
12469;SDS011;36499;46.484;13.832;2022-07-06T05:25:01;2.17;;;2.07;;
12469;SDS011;36499;46.484;13.832;2022-07-06T05:27:29;2.30;;;2.10;;
12469;SDS011;36499;46.484;13.832;2022-07-06T05:29:56;3.07;;;2.17;;
12469;SDS011;36499;46.484;13.832;2022-07-06T05:32:23;4.43;;;2.20;;
12469;SDS011;36499;46.484;13.832;2022-07-06T05:34:51;2.67;;;2.00;;
12469;SDS011;36499;46.484;13.832;2022-07-06T05:37:19;2.53;;;2.00;;
12469;SDS011;36499;46.484;13.832;2022-07-06T05:39:46;4.10;;;2.40;;
12469;SDS011;36499;46.484;13.832;2022-07-06T05:42:15;3.17;;;1.90;;
12469;SDS011;36499;46.484;13.832;2022-07-06T05:44:43;6.20;;;2.23;;
12469;SDS011;36499;46.484;13.832;2022-07-06T05:47:10;3.40;;;2.23;;
12469;SDS011;36499;46.484;13.832;2022-07-06T05:49:54;4.90;;;2.10;;
12469;SDS011;36499;46.484;13.832;2022-07-06T05:52:41;2.37;;;1.90;;
12469;SDS011;36499;46.484;13.832;2022-07-06T05:55:11;2.00;;;1.90;;
12469;SDS011;36499;46.484;13.832;2022-07-06T05:57:38;3.57;;;1.83;;
12469;SDS011;36499;46.484;13.832;2022-07-06T06:00:06;3.67;;;1.77;;
12469;SDS011;36499;46.484;13.832;2022-07-06T06:02:38;3.03;;;2.00;;
12469;SDS011;36499;46.484;13.832;2022-07-06T06:05:06;3.00;;;2.00;;
12469;SDS011;36499;46.484;13.832;2022-07-06T06:07:36;2.93;;;1.90;;
12469;SDS011;36499;46.484;13.832;2022-07-06T06:10:07;3.23;;;2.10;;
12469;SDS011;36499;46.484;13.832;2022-07-06T06:12:36;3.00;;;2.30;;
12469;SDS011;36499;46.484;13.832;2022-07-06T06:15:05;2.50;;;2.20;;
12469;SDS011;36499;46.484;13.832;2022-07-06T06:17:34;5.20;;;1.90;;
12469;SDS011;36499;46.484;13.832;2022-07-06T06:20:03;2.30;;;2.10;;
12469;SDS011;36499;46.484;13.832;2022-07-06T06:22:43;1.77;;;1.60;;
12469;SDS011;36499;46.484;13.832;2022-07-06T06:25:13;2.53;;;1.67;;
12469;SDS011;36499;46.484;13.832;2022-07-06T06:27:40;5.93;;;1.90;;
12469;SDS011;36499;46.484;13.832;2022-07-06T06:30:08;4.50;;;1.93;;
12469;SDS011;36499;46.484;13.832;2022-07-06T06:32:36;2.00;;;1.80;;
12469;SDS011;36499;46.484;13.832;2022-07-06T06:35:04;3.17;;;1.90;;
12469;SDS011;36499;46.484;13.832;2022-07-06T06:37:32;3.87;;;1.70;;
12469;SDS011;36499;46.484;13.832;2022-07-06T06:40:00;3.40;;;1.70;;
12469;SDS011;36499;46.484;13.832;2022-07-06T06:42:30;1.83;;;1.40;;
12469;SDS011;36499;46.484;13.832;2022-07-06T06:44:57;5.17;;;1.90;;
12469;SDS011;36499;46.484;13.832;2022-07-06T06:47:24;4.07;;;1.83;;
12469;SDS011;36499;46.484;13.832;2022-07-06T06:49:51;2.10;;;1.80;;
12469;SDS011;36499;46.484;13.832;2022-07-06T06:52:18;5.73;;;1.70;;
12469;SDS011;36499;46.484;13.832;2022-07-06T06:54:45;2.67;;;1.90;;
12469;SDS011;36499;46.484;13.832;2022-07-06T06:57:13;5.00;;;1.90;;
12469;SDS011;36499;46.484;13.832;2022-07-06T06:59:41;1.93;;;1.50;;
12469;SDS011;36499;46.484;13.832;2022-07-06T07:02:08;1.60;;;1.50;;
12469;SDS011;36499;46.484;13.832;2022-07-06T07:04:35;2.20;;;1.70;;
12469;SDS011;36499;46.484;13.832;2022-07-06T07:07:03;1.73;;;1.60;;
12469;SDS011;36499;46.484;13.832;2022-07-06T07:09:30;2.87;;;1.67;;
12469;SDS011;36499;46.484;13.832;2022-07-06T07:11:57;3.27;;;1.60;;
12469;SDS011;36499;46.484;13.832;2022-07-06T07:14:24;3.10;;;1.70;;
12469;SDS011;36499;46.484;13.832;2022-07-06T07:16:54;4.43;;;1.63;;
12469;SDS011;36499;46.484;13.832;2022-07-06T07:19:21;1.77;;;1.40;;
12469;SDS011;36499;46.484;13.832;2022-07-06T07:21:48;1.73;;;1.60;;
12469;SDS011;36499;46.484;13.832;2022-07-06T07:24:15;3.73;;;1.43;;
12469;SDS011;36499;46.484;13.832;2022-07-06T07:26:42;1.97;;;1.53;;
12469;SDS011;36499;46.484;13.832;2022-07-06T07:29:09;2.87;;;1.70;;
12469;SDS011;36499;46.484;13.832;2022-07-06T07:31:36;2.23;;;1.90;;
12469;SDS011;36499;46.484;13.832;2022-07-06T07:34:05;2.43;;;1.60;;
12469;SDS011;36499;46.484;13.832;2022-07-06T07:36:32;4.37;;;1.70;;
12469;SDS011;36499;46.484;13.832;2022-07-06T07:39:00;2.90;;;1.37;;
12469;SDS011;36499;46.484;13.832;2022-07-06T07:41:27;4.20;;;1.50;;
12469;SDS011;36499;46.484;13.832;2022-07-06T07:43:54;1.50;;;1.33;;
12469;SDS011;36499;46.484;13.832;2022-07-06T07:46:22;2.53;;;1.60;;
12469;SDS011;36499;46.484;13.832;2022-07-06T07:48:49;2.17;;;1.60;;
12469;SDS011;36499;46.484;13.832;2022-07-06T07:51:17;1.83;;;1.40;;
12469;SDS011;36499;46.484;13.832;2022-07-06T07:53:45;1.87;;;1.40;;
12469;SDS011;36499;46.484;13.832;2022-07-06T07:56:12;3.47;;;1.40;;
12469;SDS011;36499;46.484;13.832;2022-07-06T07:58:39;6.00;;;1.60;;
12469;SDS011;36499;46.484;13.832;2022-07-06T08:01:06;6.27;;;1.40;;
12469;SDS011;36499;46.484;13.832;2022-07-06T08:03:33;2.23;;;1.47;;
12469;SDS011;36499;46.484;13.832;2022-07-06T08:06:01;2.90;;;1.50;;
12469;SDS011;36499;46.484;13.832;2022-07-06T08:08:29;3.00;;;1.30;;
12469;SDS011;36499;46.484;13.832;2022-07-06T08:10:56;1.90;;;1.60;;
12469;SDS011;36499;46.484;13.832;2022-07-06T08:13:23;2.87;;;1.50;;
12469;SDS011;36499;46.484;13.832;2022-07-06T08:15:51;1.30;;;1.20;;
12469;SDS011;36499;46.484;13.832;2022-07-06T08:18:18;1.20;;;1.10;;
12469;SDS011;36499;46.484;13.832;2022-07-06T08:20:45;1.77;;;1.40;;
12469;SDS011;36499;46.484;13.832;2022-07-06T08:23:12;1.30;;;1.20;;
12469;SDS011;36499;46.484;13.832;2022-07-06T08:25:40;2.20;;;1.40;;
12469;SDS011;36499;46.484;13.832;2022-07-06T08:28:08;1.30;;;1.20;;
12469;SDS011;36499;46.484;13.832;2022-07-06T08:30:35;1.37;;;1.27;;
12469;SDS011;36499;46.484;13.832;2022-07-06T08:33:02;1.73;;;1.30;;
12469;SDS011;36499;46.484;13.832;2022-07-06T08:35:29;2.33;;;1.30;;
12469;SDS011;36499;46.484;13.832;2022-07-06T08:37:56;1.37;;;1.27;;
12469;SDS011;36499;46.484;13.832;2022-07-06T08:40:24;3.07;;;1.43;;
12469;SDS011;36499;46.484;13.832;2022-07-06T08:42:54;1.57;;;1.30;;
12469;SDS011;36499;46.484;13.832;2022-07-06T08:45:22;4.43;;;1.30;;
12469;SDS011;36499;46.484;13.832;2022-07-06T08:47:52;1.97;;;1.20;;
12469;SDS011;36499;46.484;13.832;2022-07-06T08:50:21;1.77;;;1.30;;
12469;SDS011;36499;46.484;13.832;2022-07-06T08:52:51;1.47;;;1.20;;
12469;SDS011;36499;46.484;13.832;2022-07-06T08:55:19;3.73;;;1.60;;
12469;SDS011;36499;46.484;13.832;2022-07-06T08:57:47;3.87;;;1.17;;
12469;SDS011;36499;46.484;13.832;2022-07-06T09:00:16;1.60;;;1.30;;
12469;SDS011;36499;46.484;13.832;2022-07-06T09:02:43;1.70;;;1.33;;
12469;SDS011;36499;46.484;13.832;2022-07-06T09:05:11;2.57;;;1.30;;
12469;SDS011;36499;46.484;13.832;2022-07-06T09:07:41;1.57;;;1.17;;
12469;SDS011;36499;46.484;13.832;2022-07-06T09:10:11;1.87;;;1.20;;
12469;SDS011;36499;46.484;13.832;2022-07-06T09:12:38;1.33;;;1.20;;
12469;SDS011;36499;46.484;13.832;2022-07-06T09:15:06;1.83;;;1.20;;
12469;SDS011;36499;46.484;13.832;2022-07-06T09:17:36;2.23;;;1.50;;
12469;SDS011;36499;46.484;13.832;2022-07-06T09:20:06;2.10;;;1.47;;
12469;SDS011;36499;46.484;13.832;2022-07-06T09:22:34;1.70;;;1.40;;
12469;SDS011;36499;46.484;13.832;2022-07-06T09:25:03;1.43;;;1.30;;
12469;SDS011;36499;46.484;13.832;2022-07-06T09:27:36;1.60;;;1.30;;
12469;SDS011;36499;46.484;13.832;2022-07-06T09:30:07;5.03;;;1.40;;
12469;SDS011;36499;46.484;13.832;2022-07-06T09:32:41;2.77;;;1.40;;
12469;SDS011;36499;46.484;13.832;2022-07-06T09:35:19;1.60;;;1.33;;
12469;SDS011;36499;46.484;13.832;2022-07-06T09:37:48;1.47;;;1.30;;
12469;SDS011;36499;46.484;13.832;2022-07-06T09:40:31;1.33;;;1.23;;
12469;SDS011;36499;46.484;13.832;2022-07-06T09:43:07;2.23;;;1.40;;
12469;SDS011;36499;46.484;13.832;2022-07-06T09:45:36;1.90;;;1.20;;
12469;SDS011;36499;46.484;13.832;2022-07-06T09:48:10;1.30;;;1.20;;
12469;SDS011;36499;46.484;13.832;2022-07-06T09:50:39;1.70;;;1.40;;
12469;SDS011;36499;46.484;13.832;2022-07-06T09:53:11;1.63;;;1.30;;
12469;SDS011;36499;46.484;13.832;2022-07-06T09:55:42;2.17;;;1.20;;
12469;SDS011;36499;46.484;13.832;2022-07-06T09:58:11;1.47;;;1.17;;
12469;SDS011;36499;46.484;13.832;2022-07-06T10:00:38;1.30;;;1.20;;
12469;SDS011;36499;46.484;13.832;2022-07-06T10:03:05;2.27;;;1.20;;
12469;SDS011;36499;46.484;13.832;2022-07-06T10:05:36;3.63;;;1.70;;
12469;SDS011;36499;46.484;13.832;2022-07-06T10:08:06;3.23;;;1.17;;
12469;SDS011;36499;46.484;13.832;2022-07-06T10:10:35;1.97;;;1.40;;
12469;SDS011;36499;46.484;13.832;2022-07-06T10:13:04;1.37;;;1.13;;
12469;SDS011;36499;46.484;13.832;2022-07-06T10:15:33;1.37;;;1.17;;
12469;SDS011;36499;46.484;13.832;2022-07-06T10:18:04;1.83;;;1.23;;
12469;SDS011;36499;46.484;13.832;2022-07-06T10:20:34;6.33;;;1.50;;
12469;SDS011;36499;46.484;13.832;2022-07-06T10:23:05;1.33;;;1.23;;
12469;SDS011;36499;46.484;13.832;2022-07-06T10:25:34;2.23;;;1.30;;
12469;SDS011;36499;46.484;13.832;2022-07-06T10:28:02;2.40;;;1.33;;
12469;SDS011;36499;46.484;13.832;2022-07-06T10:30:39;3.17;;;1.73;;
12469;SDS011;36499;46.484;13.832;2022-07-06T10:33:07;7.03;;;1.37;;
12469;SDS011;36499;46.484;13.832;2022-07-06T10:35:38;2.83;;;1.50;;
12469;SDS011;36499;46.484;13.832;2022-07-06T10:38:08;4.50;;;1.27;;
12469;SDS011;36499;46.484;13.832;2022-07-06T10:40:38;3.00;;;1.30;;
12469;SDS011;36499;46.484;13.832;2022-07-06T10:43:36;4.73;;;1.57;;
12469;SDS011;36499;46.484;13.832;2022-07-06T10:46:07;2.20;;;1.37;;
12469;SDS011;36499;46.484;13.832;2022-07-06T10:48:37;5.37;;;1.50;;
12469;SDS011;36499;46.484;13.832;2022-07-06T10:51:06;1.53;;;1.40;;
12469;SDS011;36499;46.484;13.832;2022-07-06T10:53:37;4.03;;;1.47;;
12469;SDS011;36499;46.484;13.832;2022-07-06T10:56:10;1.43;;;1.30;;
12469;SDS011;36499;46.484;13.832;2022-07-06T10:58:41;2.47;;;1.20;;
12469;SDS011;36499;46.484;13.832;2022-07-06T11:01:18;1.63;;;1.33;;
12469;SDS011;36499;46.484;13.832;2022-07-06T11:03:49;1.33;;;1.20;;
12469;SDS011;36499;46.484;13.832;2022-07-06T11:06:40;1.40;;;1.30;;
12469;SDS011;36499;46.484;13.832;2022-07-06T11:09:09;1.93;;;1.50;;
12469;SDS011;36499;46.484;13.832;2022-07-06T11:11:40;1.63;;;1.30;;
12469;SDS011;36499;46.484;13.832;2022-07-06T11:14:11;1.40;;;1.20;;
12469;SDS011;36499;46.484;13.832;2022-07-06T11:16:59;1.43;;;1.33;;
12469;SDS011;36499;46.484;13.832;2022-07-06T11:19:30;1.60;;;1.30;;
12469;SDS011;36499;46.484;13.832;2022-07-06T11:22:04;1.50;;;1.40;;
12469;SDS011;36499;46.484;13.832;2022-07-06T11:24:34;1.40;;;1.30;;
12469;SDS011;36499;46.484;13.832;2022-07-06T11:27:06;1.30;;;1.20;;
12469;SDS011;36499;46.484;13.832;2022-07-06T11:29:35;2.40;;;1.50;;
12469;SDS011;36499;46.484;13.832;2022-07-06T11:32:05;3.10;;;1.43;;
12469;SDS011;36499;46.484;13.832;2022-07-06T11:34:36;1.43;;;1.33;;
12469;SDS011;36499;46.484;13.832;2022-07-06T11:37:08;2.80;;;1.20;;
12469;SDS011;36499;46.484;13.832;2022-07-06T11:39:38;2.20;;;1.30;;
12469;SDS011;36499;46.484;13.832;2022-07-06T11:42:12;3.00;;;1.60;;
12469;SDS011;36499;46.484;13.832;2022-07-06T11:44:42;3.53;;;1.40;;
12469;SDS011;36499;46.484;13.832;2022-07-06T11:47:10;3.33;;;1.30;;
12469;SDS011;36499;46.484;13.832;2022-07-06T11:49:39;1.40;;;1.30;;
12469;SDS011;36499;46.484;13.832;2022-07-06T11:52:09;2.47;;;1.40;;
12469;SDS011;36499;46.484;13.832;2022-07-06T11:54:40;2.30;;;1.40;;
12469;SDS011;36499;46.484;13.832;2022-07-06T11:57:08;3.30;;;1.30;;
12469;SDS011;36499;46.484;13.832;2022-07-06T11:59:37;1.40;;;1.20;;
12469;SDS011;36499;46.484;13.832;2022-07-06T12:02:07;1.33;;;1.23;;
12469;SDS011;36499;46.484;13.832;2022-07-06T12:04:38;2.70;;;1.30;;
12469;SDS011;36499;46.484;13.832;2022-07-06T12:07:10;2.03;;;1.33;;
12469;SDS011;36499;46.484;13.832;2022-07-06T12:09:40;2.83;;;1.50;;
12469;SDS011;36499;46.484;13.832;2022-07-06T12:12:11;2.03;;;1.30;;
12469;SDS011;36499;46.484;13.832;2022-07-06T12:14:41;2.73;;;1.30;;
12469;SDS011;36499;46.484;13.832;2022-07-06T12:17:09;3.33;;;1.30;;
12469;SDS011;36499;46.484;13.832;2022-07-06T12:19:39;1.37;;;1.20;;
12469;SDS011;36499;46.484;13.832;2022-07-06T12:22:08;1.50;;;1.40;;
12469;SDS011;36499;46.484;13.832;2022-07-06T12:24:41;1.73;;;1.30;;
12469;SDS011;36499;46.484;13.832;2022-07-06T12:27:10;1.30;;;1.20;;
12469;SDS011;36499;46.484;13.832;2022-07-06T12:29:39;1.57;;;1.47;;
12469;SDS011;36499;46.484;13.832;2022-07-06T12:32:13;2.37;;;1.40;;
12469;SDS011;36499;46.484;13.832;2022-07-06T12:34:42;1.77;;;1.20;;
12469;SDS011;36499;46.484;13.832;2022-07-06T12:37:11;1.80;;;1.30;;
12469;SDS011;36499;46.484;13.832;2022-07-06T12:39:42;3.73;;;1.40;;
12469;SDS011;36499;46.484;13.832;2022-07-06T12:42:13;4.67;;;1.57;;
12469;SDS011;36499;46.484;13.832;2022-07-06T12:44:42;1.53;;;1.30;;
12469;SDS011;36499;46.484;13.832;2022-07-06T12:47:12;1.30;;;1.20;;
12469;SDS011;36499;46.484;13.832;2022-07-06T12:49:43;1.83;;;1.20;;
12469;SDS011;36499;46.484;13.832;2022-07-06T12:52:13;1.37;;;1.17;;
12469;SDS011;36499;46.484;13.832;2022-07-06T12:54:42;1.30;;;1.20;;
12469;SDS011;36499;46.484;13.832;2022-07-06T12:57:13;1.73;;;1.20;;
12469;SDS011;36499;46.484;13.832;2022-07-06T12:59:42;1.80;;;1.20;;
12469;SDS011;36499;46.484;13.832;2022-07-06T13:02:19;1.70;;;1.30;;
12469;SDS011;36499;46.484;13.832;2022-07-06T13:04:55;1.93;;;1.17;;
12469;SDS011;36499;46.484;13.832;2022-07-06T13:07:28;1.97;;;1.30;;
12469;SDS011;36499;46.484;13.832;2022-07-06T13:10:01;2.10;;;1.23;;
12469;SDS011;36499;46.484;13.832;2022-07-06T13:12:33;1.50;;;1.37;;
12469;SDS011;36499;46.484;13.832;2022-07-06T13:15:02;1.30;;;1.20;;
12469;SDS011;36499;46.484;13.832;2022-07-06T13:17:32;2.17;;;1.50;;
12469;SDS011;36499;46.484;13.832;2022-07-06T13:20:00;1.60;;;1.43;;
12469;SDS011;36499;46.484;13.832;2022-07-06T13:22:29;1.50;;;1.40;;
12469;SDS011;36499;46.484;13.832;2022-07-06T13:24:56;1.60;;;1.50;;
12469;SDS011;36499;46.484;13.832;2022-07-06T13:27:23;3.33;;;1.30;;
12469;SDS011;36499;46.484;13.832;2022-07-06T13:29:53;2.10;;;1.40;;
12469;SDS011;36499;46.484;13.832;2022-07-06T13:32:23;1.40;;;1.30;;
12469;SDS011;36499;46.484;13.832;2022-07-06T13:34:50;1.77;;;1.30;;
12469;SDS011;36499;46.484;13.832;2022-07-06T13:37:18;4.20;;;1.30;;
12469;SDS011;36499;46.484;13.832;2022-07-06T13:39:48;1.50;;;1.40;;
12469;SDS011;36499;46.484;13.832;2022-07-06T13:42:15;1.33;;;1.23;;
12469;SDS011;36499;46.484;13.832;2022-07-06T13:44:42;1.70;;;1.33;;
12469;SDS011;36499;46.484;13.832;2022-07-06T13:47:09;4.10;;;1.60;;
12469;SDS011;36499;46.484;13.832;2022-07-06T13:49:37;1.43;;;1.33;;
12469;SDS011;36499;46.484;13.832;2022-07-06T13:52:04;1.73;;;1.50;;
12469;SDS011;36499;46.484;13.832;2022-07-06T13:54:32;1.40;;;1.30;;
12469;SDS011;36499;46.484;13.832;2022-07-06T13:57:02;3.00;;;1.50;;
12469;SDS011;36499;46.484;13.832;2022-07-06T13:59:31;1.53;;;1.20;;
12469;SDS011;36499;46.484;13.832;2022-07-06T14:01:59;2.10;;;1.40;;
12469;SDS011;36499;46.484;13.832;2022-07-06T14:04:26;1.37;;;1.20;;
12469;SDS011;36499;46.484;13.832;2022-07-06T14:06:53;1.50;;;1.40;;
12469;SDS011;36499;46.484;13.832;2022-07-06T14:09:20;1.70;;;1.60;;
12469;SDS011;36499;46.484;13.832;2022-07-06T14:11:48;1.57;;;1.40;;
12469;SDS011;36499;46.484;13.832;2022-07-06T14:14:16;2.17;;;1.60;;
12469;SDS011;36499;46.484;13.832;2022-07-06T14:16:43;3.73;;;1.40;;
12469;SDS011;36499;46.484;13.832;2022-07-06T14:19:11;2.60;;;1.97;;
12469;SDS011;36499;46.484;13.832;2022-07-06T14:21:38;1.77;;;1.67;;
12469;SDS011;36499;46.484;13.832;2022-07-06T14:24:05;2.20;;;1.60;;
12469;SDS011;36499;46.484;13.832;2022-07-06T14:26:33;1.57;;;1.30;;
12469;SDS011;36499;46.484;13.832;2022-07-06T14:29:00;3.33;;;1.60;;
12469;SDS011;36499;46.484;13.832;2022-07-06T14:31:28;3.43;;;1.40;;
12469;SDS011;36499;46.484;13.832;2022-07-06T14:33:55;1.70;;;1.40;;
12469;SDS011;36499;46.484;13.832;2022-07-06T14:36:23;2.13;;;1.90;;
12469;SDS011;36499;46.484;13.832;2022-07-06T14:38:50;1.50;;;1.40;;
12469;SDS011;36499;46.484;13.832;2022-07-06T14:41:17;1.83;;;1.50;;
12469;SDS011;36499;46.484;13.832;2022-07-06T14:43:44;1.60;;;1.50;;